General Mitchell International Airport
KMKE : now visible

Airfield :











YOU CAN JOIN US ON...

 
LOGIN :

Register | Disclaimer

   EN    FR    IT 

 









Legend :    VFR   Marginal VFR   IFR   Intensive IFR   Very Intensive IFR
Visi :
Ceiling :
>= 8 km
>= 3000ft
5 to 8 km
1000 to 3000 ft
1500m to 5 km
500 to 1000 ft
800 to 1500m
200 to 500 ft
< 800m
< 200 ft
Symbols :   Thunderstorms  Fog  Heavy snow  Heavy precipitations  Wind > 20 kt







- Airport Elevation : 723 ft
- IATA code : MKE


KMKE - General Mitchell International

CURRENT METAR :
  • 201952Z 13009KT 10SM FEW065 BKN250 26/18 A3009 RMK AO2 SLP186 T02560183

EXPIRED METARs :
  • 201852Z 12006KT 10SM SCT200 BKN250 26/17 A3010 RMK AO2 SLP189 T02610172
  • 201752Z 09006KT 10SM SCT200 BKN250 26/18 A3011 RMK AO2 SLP194 T02610178 10261 20183 58009

TAF KMKE
Valid from the 20 at 18:00 until the 22 at 00:00 UTC


201725Z 2018/2124 10006KT P6SM SCT120 BKN250
FM210300 18005KT P6SM SCT250
FM211500 19011G19KT P6SM SCT090
FM211900 19016G26KT P6SM OVC035
FM212000 20016G26KT P6SM OVC030
FM212300 20013G23KT P6SM OVC035
No reported NOTAMs for that airfield.



MET'MAP, your aeronautical weather chart ! - Copyright ORBIFLY December 2007 - Disclaimer

ORBIFLY MET'MAP TEAM :

Programming & Development : Alexandra Zaïnal
Concept & Development : Baudouin d'Aumeries
Co-Development & Prog : Marc-Olivier Méhu
Technical & hardware support : Manuel Goepfert

Contact : metmap@orbifly.com




SOURCES & CREDITS :

   NOAA       Earth
Advisory